sensor_id;sensor_type;location;lat;lon;timestamp;pressure;altitude;pressure_sealevel;temperature;humidity
60725;BME280;59881;36.722;-4.462;2023-04-25T00:02:22;100834.19;;;15.69;75.53
60725;BME280;59881;36.722;-4.462;2023-04-25T00:04:47;100939.50;;;16.53;75.31
60725;BME280;59881;36.722;-4.462;2023-04-25T00:07:17;100824.19;;;15.73;75.08
60725;BME280;59881;36.722;-4.462;2023-04-25T00:09:42;100966.09;;;16.53;74.99
60725;BME280;59881;36.722;-4.462;2023-04-25T00:12:08;100952.41;;;16.58;74.97
60725;BME280;59881;36.722;-4.462;2023-04-25T00:14:34;100709.81;;;15.13;75.25
60725;BME280;59881;36.722;-4.462;2023-04-25T00:17:01;100759.56;;;15.42;75.19
60725;BME280;59881;36.722;-4.462;2023-04-25T00:19:27;100979.88;;;16.68;75.31
60725;BME280;59881;36.722;-4.462;2023-04-25T00:21:54;100872.09;;;15.92;75.67
60725;BME280;59881;36.722;-4.462;2023-04-25T00:24:20;100958.59;;;16.68;76.37
60725;BME280;59881;36.722;-4.462;2023-04-25T00:26:49;100352.22;;;12.90;75.93
60725;BME280;59881;36.722;-4.462;2023-04-25T00:29:15;100583.25;;;14.31;76.57
60725;BME280;59881;36.722;-4.462;2023-04-25T00:31:41;100801.97;;;15.53;76.28
60725;BME280;59881;36.722;-4.462;2023-04-25T00:34:07;100596.91;;;14.26;76.73
60725;BME280;59881;36.722;-4.462;2023-04-25T00:36:33;100948.88;;;16.47;77.27
60725;BME280;59881;36.722;-4.462;2023-04-25T00:38:59;100883.13;;;15.88;77.60
60725;BME280;59881;36.722;-4.462;2023-04-25T00:41:26;100945.91;;;16.41;77.60
60725;BME280;59881;36.722;-4.462;2023-04-25T00:43:53;100824.75;;;15.56;77.67
60725;BME280;59881;36.722;-4.462;2023-04-25T00:46:19;100762.50;;;15.18;77.89
60725;BME280;59881;36.722;-4.462;2023-04-25T00:48:45;100969.22;;;16.27;77.40
60725;BME280;59881;36.722;-4.462;2023-04-25T00:51:14;100801.22;;;15.41;77.40
60725;BME280;59881;36.722;-4.462;2023-04-25T00:53:41;100796.69;;;15.32;77.90
60725;BME280;59881;36.722;-4.462;2023-04-25T00:56:07;100929.19;;;16.29;77.58
60725;BME280;59881;36.722;-4.462;2023-04-25T00:58:33;100700.28;;;14.80;77.44
60725;BME280;59881;36.722;-4.462;2023-04-25T01:00:59;100744.28;;;15.03;77.49
60725;BME280;59881;36.722;-4.462;2023-04-25T01:03:25;100784.19;;;15.44;77.48
60725;BME280;59881;36.722;-4.462;2023-04-25T01:05:54;100927.38;;;16.29;77.54
60725;BME280;59881;36.722;-4.462;2023-04-25T01:08:23;100799.03;;;15.56;77.49
60725;BME280;59881;36.722;-4.462;2023-04-25T01:10:49;100849.44;;;15.88;78.26
60725;BME280;59881;36.722;-4.462;2023-04-25T01:13:14;100834.81;;;15.52;78.37
60725;BME280;59881;36.722;-4.462;2023-04-25T01:15:40;100463.41;;;13.43;78.19
60725;BME280;59881;36.722;-4.462;2023-04-25T01:18:06;100523.25;;;13.88;77.84
60725;BME280;59881;36.722;-4.462;2023-04-25T01:20:32;100723.09;;;15.13;77.76
60725;BME280;59881;36.722;-4.462;2023-04-25T01:22:58;100756.47;;;15.37;77.60
60725;BME280;59881;36.722;-4.462;2023-04-25T01:25:24;100677.00;;;14.83;76.82
60725;BME280;59881;36.722;-4.462;2023-04-25T01:27:50;100800.97;;;15.23;76.71
60725;BME280;59881;36.722;-4.462;2023-04-25T01:30:16;100878.88;;;16.06;76.75
60725;BME280;59881;36.722;-4.462;2023-04-25T01:32:42;100874.28;;;16.08;76.52
60725;BME280;59881;36.722;-4.462;2023-04-25T01:35:10;100868.13;;;16.08;76.41
60725;BME280;59881;36.722;-4.462;2023-04-25T01:37:37;100730.94;;;15.15;76.47
60725;BME280;59881;36.722;-4.462;2023-04-25T01:40:03;100861.69;;;16.10;76.60
60725;BME280;59881;36.722;-4.462;2023-04-25T01:42:32;100824.50;;;15.80;76.57
60725;BME280;59881;36.722;-4.462;2023-04-25T01:44:58;100705.44;;;15.02;76.33
60725;BME280;59881;36.722;-4.462;2023-04-25T01:47:23;100695.34;;;14.96;76.24
60725;BME280;59881;36.722;-4.462;2023-04-25T01:49:49;100866.00;;;16.02;75.96
60725;BME280;59881;36.722;-4.462;2023-04-25T01:52:14;100863.75;;;15.97;75.84
60725;BME280;59881;36.722;-4.462;2023-04-25T01:54:41;100647.81;;;14.30;75.45
60725;BME280;59881;36.722;-4.462;2023-04-25T01:57:10;100757.34;;;14.95;75.42
60725;BME280;59881;36.722;-4.462;2023-04-25T01:59:36;100702.13;;;14.89;75.17
60725;BME280;59881;36.722;-4.462;2023-04-25T02:02:02;100729.69;;;14.98;75.21
60725;BME280;59881;36.722;-4.462;2023-04-25T02:04:32;100871.69;;;15.87;75.07
60725;BME280;59881;36.722;-4.462;2023-04-25T02:06:58;100763.84;;;15.12;74.49
60725;BME280;59881;36.722;-4.462;2023-04-25T02:09:23;100675.66;;;14.57;74.18
60725;BME280;59881;36.722;-4.462;2023-04-25T02:11:49;100862.59;;;15.90;73.70
60725;BME280;59881;36.722;-4.462;2023-04-25T02:14:15;100892.78;;;15.89;73.18
60725;BME280;59881;36.722;-4.462;2023-04-25T02:16:40;100874.56;;;15.84;73.03
60725;BME280;59881;36.722;-4.462;2023-04-25T02:19:09;100869.78;;;15.78;72.60
60725;BME280;59881;36.722;-4.462;2023-04-25T02:21:35;100754.09;;;14.92;72.18
60725;BME280;59881;36.722;-4.462;2023-04-25T02:24:02;100789.16;;;15.16;71.81
60725;BME280;59881;36.722;-4.462;2023-04-25T02:26:27;100891.91;;;15.67;71.99
60725;BME280;59881;36.722;-4.462;2023-04-25T02:28:53;100380.75;;;12.64;71.40
60725;BME280;59881;36.722;-4.462;2023-04-25T02:31:18;100860.97;;;15.57;71.50
60725;BME280;59881;36.722;-4.462;2023-04-25T02:33:44;100712.44;;;14.61;71.42
60725;BME280;59881;36.722;-4.462;2023-04-25T02:36:10;100777.13;;;14.91;71.28
60725;BME280;59881;36.722;-4.462;2023-04-25T02:38:35;100872.44;;;15.57;70.96
60725;BME280;59881;36.722;-4.462;2023-04-25T02:41:01;100808.84;;;14.93;70.83
60725;BME280;59881;36.722;-4.462;2023-04-25T02:43:27;100892.38;;;15.51;70.43
60725;BME280;59881;36.722;-4.462;2023-04-25T02:45:52;100904.22;;;15.47;69.94
60725;BME280;59881;36.722;-4.462;2023-04-25T02:48:18;100886.22;;;15.30;69.99
60725;BME280;59881;36.722;-4.462;2023-04-25T02:50:43;100908.25;;;15.42;69.67
60725;BME280;59881;36.722;-4.462;2023-04-25T02:53:09;100599.66;;;13.60;69.34
60725;BME280;59881;36.722;-4.462;2023-04-25T02:55:35;100903.72;;;15.32;69.12
60725;BME280;59881;36.722;-4.462;2023-04-25T02:58:01;100767.50;;;14.46;69.11
60725;BME280;59881;36.722;-4.462;2023-04-25T03:00:26;100896.69;;;15.31;68.85
60725;BME280;59881;36.722;-4.462;2023-04-25T03:02:52;100717.81;;;14.27;68.68
60725;BME280;59881;36.722;-4.462;2023-04-25T03:05:17;100688.63;;;14.06;68.23
60725;BME280;59881;36.722;-4.462;2023-04-25T03:07:43;100838.25;;;14.89;68.34
60725;BME280;59881;36.722;-4.462;2023-04-25T03:10:10;100730.09;;;14.28;68.19
60725;BME280;59881;36.722;-4.462;2023-04-25T03:12:36;100881.91;;;15.18;67.87
60725;BME280;59881;36.722;-4.462;2023-04-25T03:15:02;100431.81;;;12.08;67.33
60725;BME280;59881;36.722;-4.462;2023-04-25T03:17:28;100878.66;;;15.14;67.73
60725;BME280;59881;36.722;-4.462;2023-04-25T03:19:53;100560.38;;;13.11;67.31
60725;BME280;59881;36.722;-4.462;2023-04-25T03:22:19;100794.47;;;14.52;67.19
60725;BME280;59881;36.722;-4.462;2023-04-25T03:24:44;100429.91;;;12.44;67.03
60725;BME280;59881;36.722;-4.462;2023-04-25T03:27:10;100723.38;;;14.24;66.90
60725;BME280;59881;36.722;-4.462;2023-04-25T03:29:35;100890.47;;;15.21;66.65
60725;BME280;59881;36.722;-4.462;2023-04-25T03:32:01;100702.44;;;14.21;66.46
60725;BME280;59881;36.722;-4.462;2023-04-25T03:34:27;100749.97;;;14.23;66.16
60725;BME280;59881;36.722;-4.462;2023-04-25T03:36:53;100541.38;;;13.28;65.62
60725;BME280;59881;36.722;-4.462;2023-04-25T03:39:18;100523.00;;;13.04;65.27
60725;BME280;59881;36.722;-4.462;2023-04-25T03:41:44;100746.72;;;14.31;65.26
60725;BME280;59881;36.722;-4.462;2023-04-25T03:44:10;100801.44;;;14.75;65.37
60725;BME280;59881;36.722;-4.462;2023-04-25T03:46:35;100870.72;;;15.14;65.36
60725;BME280;59881;36.722;-4.462;2023-04-25T03:49:01;100723.72;;;14.31;64.95
60725;BME280;59881;36.722;-4.462;2023-04-25T03:51:26;100775.81;;;14.53;64.20
60725;BME280;59881;36.722;-4.462;2023-04-25T03:53:52;100595.34;;;13.37;63.46
60725;BME280;59881;36.722;-4.462;2023-04-25T03:56:17;100688.16;;;14.01;63.35
60725;BME280;59881;36.722;-4.462;2023-04-25T03:58:43;100902.53;;;15.25;63.12
60725;BME280;59881;36.722;-4.462;2023-04-25T04:01:09;100572.63;;;13.23;63.55
60725;BME280;59881;36.722;-4.462;2023-04-25T04:03:35;100879.66;;;15.34;64.08
60725;BME280;59881;36.722;-4.462;2023-04-25T04:06:02;100685.63;;;14.00;64.24
60725;BME280;59881;36.722;-4.462;2023-04-25T04:08:29;100754.69;;;14.63;64.84
60725;BME280;59881;36.722;-4.462;2023-04-25T04:10:57;100695.31;;;14.22;65.45
60725;BME280;59881;36.722;-4.462;2023-04-25T04:13:22;100853.28;;;15.32;65.79
60725;BME280;59881;36.722;-4.462;2023-04-25T04:15:48;100666.66;;;14.16;65.59
60725;BME280;59881;36.722;-4.462;2023-04-25T04:18:13;100901.13;;;15.42;66.01
60725;BME280;59881;36.722;-4.462;2023-04-25T04:20:39;100793.03;;;14.59;65.98
60725;BME280;59881;36.722;-4.462;2023-04-25T04:23:04;100763.31;;;14.55;66.08
60725;BME280;59881;36.722;-4.462;2023-04-25T04:25:30;100517.78;;;13.25;66.14
60725;BME280;59881;36.722;-4.462;2023-04-25T04:27:56;100894.63;;;15.35;66.10
60725;BME280;59881;36.722;-4.462;2023-04-25T04:30:23;100873.06;;;15.28;66.11
60725;BME280;59881;36.722;-4.462;2023-04-25T04:32:55;100886.97;;;15.21;66.05
60725;BME280;59881;36.722;-4.462;2023-04-25T04:35:22;100858.44;;;15.13;66.19
60725;BME280;59881;36.722;-4.462;2023-04-25T04:37:47;100746.75;;;14.19;66.24
60725;BME280;59881;36.722;-4.462;2023-04-25T04:40:14;100566.72;;;13.08;65.87
60725;BME280;59881;36.722;-4.462;2023-04-25T04:42:41;100694.66;;;13.97;65.90
60725;BME280;59881;36.722;-4.462;2023-04-25T04:45:07;100799.44;;;14.56;66.14
60725;BME280;59881;36.722;-4.462;2023-04-25T04:47:33;100739.19;;;14.15;66.17
60725;BME280;59881;36.722;-4.462;2023-04-25T04:49:59;100766.00;;;14.10;66.26
60725;BME280;59881;36.722;-4.462;2023-04-25T04:52:24;100880.09;;;14.97;66.26
60725;BME280;59881;36.722;-4.462;2023-04-25T04:54:50;100874.19;;;14.94;66.45
60725;BME280;59881;36.722;-4.462;2023-04-25T04:57:15;100887.56;;;14.92;66.37
60725;BME280;59881;36.722;-4.462;2023-04-25T04:59:41;100568.53;;;12.62;65.90
60725;BME280;59881;36.722;-4.462;2023-04-25T05:02:07;100745.44;;;14.02;65.66
60725;BME280;59881;36.722;-4.462;2023-04-25T05:04:32;100705.91;;;13.67;65.93
60725;BME280;59881;36.722;-4.462;2023-04-25T05:06:58;100349.16;;;11.61;65.52
60725;BME280;59881;36.722;-4.462;2023-04-25T05:09:24;100629.84;;;13.13;65.78
60725;BME280;59881;36.722;-4.462;2023-04-25T05:11:52;100868.19;;;14.80;65.10
60725;BME280;59881;36.722;-4.462;2023-04-25T05:14:18;100660.56;;;13.49;64.94
60725;BME280;59881;36.722;-4.462;2023-04-25T05:16:43;100859.66;;;14.77;64.79
60725;BME280;59881;36.722;-4.462;2023-04-25T05:19:09;100615.06;;;13.21;64.88
60725;BME280;59881;36.722;-4.462;2023-04-25T05:21:35;100595.25;;;13.16;64.36
60725;BME280;59881;36.722;-4.462;2023-04-25T05:24:01;100641.31;;;13.47;64.22
60725;BME280;59881;36.722;-4.462;2023-04-25T05:26:26;100876.16;;;14.80;64.16
60725;BME280;59881;36.722;-4.462;2023-04-25T05:28:57;100882.06;;;14.84;64.18
60725;BME280;59881;36.722;-4.462;2023-04-25T05:31:22;100748.09;;;14.02;63.83
60725;BME280;59881;36.722;-4.462;2023-04-25T05:33:48;100609.44;;;13.37;63.50
60725;BME280;59881;36.722;-4.462;2023-04-25T05:36:13;100780.91;;;14.34;63.03
60725;BME280;59881;36.722;-4.462;2023-04-25T05:38:39;100882.91;;;15.05;63.24
60725;BME280;59881;36.722;-4.462;2023-04-25T05:41:04;100544.34;;;13.23;62.83
60725;BME280;59881;36.722;-4.462;2023-04-25T05:43:30;100853.78;;;15.26;62.63
60725;BME280;59881;36.722;-4.462;2023-04-25T05:45:56;100787.34;;;14.96;62.56
60725;BME280;59881;36.722;-4.462;2023-04-25T05:48:21;100878.13;;;15.52;61.97
60725;BME280;59881;36.722;-4.462;2023-04-25T05:50:47;100841.44;;;15.79;61.80
60725;BME280;59881;36.722;-4.462;2023-04-25T05:53:12;100856.59;;;16.28;61.74
60725;BME280;59881;36.722;-4.462;2023-04-25T05:55:38;100666.78;;;15.71;60.56
60725;BME280;59881;36.722;-4.462;2023-04-25T05:58:05;100856.69;;;17.55;59.25
60725;BME280;59881;36.722;-4.462;2023-04-25T06:00:32;100863.50;;;18.52;57.72
60725;BME280;59881;36.722;-4.462;2023-04-25T06:02:58;100867.31;;;19.57;54.99
60725;BME280;59881;36.722;-4.462;2023-04-25T06:05:23;100766.38;;;20.11;51.73
60725;BME280;59881;36.722;-4.462;2023-04-25T06:07:49;100770.72;;;20.79;48.40
60725;BME280;59881;36.722;-4.462;2023-04-25T06:10:15;100821.06;;;21.66;46.49
60725;BME280;59881;36.722;-4.462;2023-04-25T06:12:41;100676.44;;;21.08;44.74
60725;BME280;59881;36.722;-4.462;2023-04-25T06:15:07;100837.53;;;22.42;43.56
60725;BME280;59881;36.722;-4.462;2023-04-25T06:17:33;100823.75;;;22.99;42.21
60725;BME280;59881;36.722;-4.462;2023-04-25T06:19:59;100584.31;;;22.35;40.69
60725;BME280;59881;36.722;-4.462;2023-04-25T06:22:24;100806.25;;;24.67;38.69
60725;BME280;59881;36.722;-4.462;2023-04-25T06:24:50;100819.91;;;25.30;37.25
60725;BME280;59881;36.722;-4.462;2023-04-25T06:27:15;100754.59;;;25.34;36.13
60725;BME280;59881;36.722;-4.462;2023-04-25T06:29:41;100551.66;;;24.71;35.09
60725;BME280;59881;36.722;-4.462;2023-04-25T06:32:06;100672.69;;;25.90;33.94
60725;BME280;59881;36.722;-4.462;2023-04-25T06:34:32;100823.56;;;27.01;33.12
60725;BME280;59881;36.722;-4.462;2023-04-25T06:36:57;100664.72;;;25.62;33.28
60725;BME280;59881;36.722;-4.462;2023-04-25T06:39:23;100669.44;;;25.53;33.14
60725;BME280;59881;36.722;-4.462;2023-04-25T06:41:49;100724.25;;;26.02;32.90
60725;BME280;59881;36.722;-4.462;2023-04-25T06:44:15;100783.97;;;26.54;31.91
60725;BME280;59881;36.722;-4.462;2023-04-25T06:46:40;100794.03;;;26.73;31.38
60725;BME280;59881;36.722;-4.462;2023-04-25T06:49:06;100725.63;;;26.66;31.02
60725;BME280;59881;36.722;-4.462;2023-04-25T06:51:32;100674.66;;;26.50;30.03
60725;BME280;59881;36.722;-4.462;2023-04-25T06:53:57;100840.72;;;28.07;29.29
60725;BME280;59881;36.722;-4.462;2023-04-25T06:56:23;100738.34;;;27.91;28.19
60725;BME280;59881;36.722;-4.462;2023-04-25T06:58:49;100847.53;;;29.32;26.76
60725;BME280;59881;36.722;-4.462;2023-04-25T07:01:15;100864.47;;;29.96;25.45
60725;BME280;59881;36.722;-4.462;2023-04-25T07:03:40;100696.63;;;29.30;25.25
60725;BME280;59881;36.722;-4.462;2023-04-25T07:06:06;100852.56;;;30.34;24.96
60725;BME280;59881;36.722;-4.462;2023-04-25T07:08:32;100828.03;;;30.52;24.58
60725;BME280;59881;36.722;-4.462;2023-04-25T07:10:57;100571.28;;;29.10;24.43
60725;BME280;59881;36.722;-4.462;2023-04-25T07:13:23;100824.78;;;31.39;24.32
60725;BME280;59881;36.722;-4.462;2023-04-25T07:15:48;100833.47;;;32.12;24.33
60725;BME280;59881;36.722;-4.462;2023-04-25T07:18:14;100851.53;;;32.42;22.95
60725;BME280;59881;36.722;-4.462;2023-04-25T07:20:40;100833.16;;;32.37;22.85
60725;BME280;59881;36.722;-4.462;2023-04-25T07:23:06;100585.75;;;30.60;22.46
60725;BME280;59881;36.722;-4.462;2023-04-25T07:25:31;100750.91;;;31.59;22.67
60725;BME280;59881;36.722;-4.462;2023-04-25T07:27:57;100829.16;;;32.28;22.44
60725;BME280;59881;36.722;-4.462;2023-04-25T07:30:23;100803.38;;;32.19;22.12
60725;BME280;59881;36.722;-4.462;2023-04-25T07:32:50;100833.38;;;32.93;22.00
60725;BME280;59881;36.722;-4.462;2023-04-25T07:35:16;100841.16;;;33.35;22.07
60725;BME280;59881;36.722;-4.462;2023-04-25T07:37:42;100648.09;;;32.74;21.34
60725;BME280;59881;36.722;-4.462;2023-04-25T07:40:08;100848.00;;;34.37;21.34
60725;BME280;59881;36.722;-4.462;2023-04-25T07:42:35;100795.31;;;34.74;20.54
60725;BME280;59881;36.722;-4.462;2023-04-25T07:45:01;100835.00;;;35.47;20.19
60725;BME280;59881;36.722;-4.462;2023-04-25T07:47:26;100627.06;;;34.72;19.75
60725;BME280;59881;36.722;-4.462;2023-04-25T07:49:52;100833.47;;;36.24;19.19
60725;BME280;59881;36.722;-4.462;2023-04-25T07:52:18;100741.00;;;36.04;19.47
60725;BME280;59881;36.722;-4.462;2023-04-25T07:54:43;100771.56;;;36.74;19.23
60725;BME280;59881;36.722;-4.462;2023-04-25T07:57:09;100837.09;;;37.63;18.97
60725;BME280;59881;36.722;-4.462;2023-04-25T07:59:34;100840.00;;;37.92;18.45
60725;BME280;59881;36.722;-4.462;2023-04-25T08:02:00;100845.44;;;38.13;18.32
60725;BME280;59881;36.722;-4.462;2023-04-25T08:04:27;100836.47;;;38.41;18.33
60725;BME280;59881;36.722;-4.462;2023-04-25T08:06:53;100807.69;;;38.68;18.25
60725;BME280;59881;36.722;-4.462;2023-04-25T08:09:19;100742.31;;;38.84;17.96
60725;BME280;59881;36.722;-4.462;2023-04-25T08:11:45;100836.50;;;39.92;17.50
60725;BME280;59881;36.722;-4.462;2023-04-25T08:14:12;100844.38;;;40.23;16.88
60725;BME280;59881;36.722;-4.462;2023-04-25T08:16:37;100788.63;;;40.02;17.43
60725;BME280;59881;36.722;-4.462;2023-04-25T08:19:03;100692.53;;;40.09;17.15
60725;BME280;59881;36.722;-4.462;2023-04-25T08:21:29;100709.78;;;40.53;16.73
60725;BME280;59881;36.722;-4.462;2023-04-25T08:23:54;100616.75;;;40.21;16.42
60725;BME280;59881;36.722;-4.462;2023-04-25T08:26:20;100837.66;;;41.88;16.29
60725;BME280;59881;36.722;-4.462;2023-04-25T08:28:46;100837.38;;;41.76;16.88
60725;BME280;59881;36.722;-4.462;2023-04-25T08:31:11;100838.19;;;42.27;15.85
60725;BME280;59881;36.722;-4.462;2023-04-25T08:33:37;100842.81;;;42.45;15.21
60725;BME280;59881;36.722;-4.462;2023-04-25T08:36:03;100867.97;;;42.57;14.95
60725;BME280;59881;36.722;-4.462;2023-04-25T08:38:28;100737.44;;;42.50;14.43
60725;BME280;59881;36.722;-4.462;2023-04-25T08:40:54;100836.44;;;43.52;14.04
60725;BME280;59881;36.722;-4.462;2023-04-25T08:43:23;100813.59;;;43.47;13.83
60725;BME280;59881;36.722;-4.462;2023-04-25T08:45:48;100830.28;;;43.64;13.50
60725;BME280;59881;36.722;-4.462;2023-04-25T08:48:16;100836.53;;;43.78;13.56
60725;BME280;59881;36.722;-4.462;2023-04-25T08:50:53;100832.69;;;44.32;12.86
60725;BME280;59881;36.722;-4.462;2023-04-25T08:53:38;100835.19;;;44.59;12.52
60725;BME280;59881;36.722;-4.462;2023-04-25T08:56:08;100836.91;;;44.81;12.41
60725;BME280;59881;36.722;-4.462;2023-04-25T08:58:35;100833.50;;;44.76;11.81
60725;BME280;59881;36.722;-4.462;2023-04-25T09:01:03;100733.56;;;44.32;12.34
60725;BME280;59881;36.722;-4.462;2023-04-25T09:03:29;100823.53;;;45.39;12.10
60725;BME280;59881;36.722;-4.462;2023-04-25T09:05:55;100814.50;;;45.72;11.85
60725;BME280;59881;36.722;-4.462;2023-04-25T09:08:20;100839.94;;;46.34;11.54
60725;BME280;59881;36.722;-4.462;2023-04-25T09:10:46;100837.09;;;46.63;11.41
60725;BME280;59881;36.722;-4.462;2023-04-25T09:13:14;100837.41;;;46.95;11.50
60725;BME280;59881;36.722;-4.462;2023-04-25T09:15:56;100824.16;;;46.80;10.86
60725;BME280;59881;36.722;-4.462;2023-04-25T09:18:28;100845.16;;;47.23;10.69
60725;BME280;59881;36.722;-4.462;2023-04-25T09:20:55;100749.97;;;47.12;10.58
60725;BME280;59881;36.722;-4.462;2023-04-25T09:23:21;100838.53;;;47.89;10.33
60725;BME280;59881;36.722;-4.462;2023-04-25T09:25:48;100812.06;;;48.11;10.24
60725;BME280;59881;36.722;-4.462;2023-04-25T09:28:14;100745.88;;;48.12;10.75
60725;BME280;59881;36.722;-4.462;2023-04-25T09:30:40;100823.41;;;49.03;10.35
60725;BME280;59881;36.722;-4.462;2023-04-25T09:33:07;100831.69;;;48.99;10.37
60725;BME280;59881;36.722;-4.462;2023-04-25T09:35:42;100843.84;;;48.91;9.85
60725;BME280;59881;36.722;-4.462;2023-04-25T09:38:13;100797.50;;;48.74;9.86
60725;BME280;59881;36.722;-4.462;2023-04-25T09:40:44;100827.09;;;49.39;9.64
60725;BME280;59881;36.722;-4.462;2023-04-25T09:43:20;100827.50;;;50.08;9.18
60725;BME280;59881;36.722;-4.462;2023-04-25T09:45:46;100829.19;;;50.51;9.68
60725;BME280;59881;36.722;-4.462;2023-04-25T09:48:20;100824.50;;;50.79;8.88
60725;BME280;59881;36.722;-4.462;2023-04-25T09:51:08;100734.13;;;50.43;9.28
60725;BME280;59881;36.722;-4.462;2023-04-25T09:53:36;100826.69;;;51.12;8.90
60725;BME280;59881;36.722;-4.462;2023-04-25T09:56:07;100836.88;;;51.01;8.40
60725;BME280;59881;36.722;-4.462;2023-04-25T09:58:34;100824.69;;;50.08;8.88
60725;BME280;59881;36.722;-4.462;2023-04-25T10:01:04;100840.69;;;49.72;9.94
60725;BME280;59881;36.722;-4.462;2023-04-25T10:03:39;100755.91;;;48.73;10.93
60725;BME280;59881;36.722;-4.462;2023-04-25T10:06:12;100863.69;;;48.86;11.16
60725;BME280;59881;36.722;-4.462;2023-04-25T10:08:40;100788.44;;;48.08;11.35
60725;BME280;59881;36.722;-4.462;2023-04-25T10:11:08;100835.50;;;48.22;11.71
60725;BME280;59881;36.722;-4.462;2023-04-25T10:13:35;100844.72;;;48.51;11.51
60725;BME280;59881;36.722;-4.462;2023-04-25T10:16:02;100842.84;;;48.55;11.53
60725;BME280;59881;36.722;-4.462;2023-04-25T10:18:29;100845.16;;;48.37;11.56
60725;BME280;59881;36.722;-4.462;2023-04-25T10:20:56;100684.88;;;46.59;11.80
60725;BME280;59881;36.722;-4.462;2023-04-25T10:23:23;100832.88;;;46.57;12.25
60725;BME280;59881;36.722;-4.462;2023-04-25T10:25:50;100825.09;;;46.63;11.79
60725;BME280;59881;36.722;-4.462;2023-04-25T10:28:16;100836.22;;;46.51;11.82
60725;BME280;59881;36.722;-4.462;2023-04-25T10:31:02;100854.84;;;46.92;11.94
60725;BME280;59881;36.722;-4.462;2023-04-25T10:33:38;100852.22;;;45.91;12.89
60725;BME280;59881;36.722;-4.462;2023-04-25T10:36:12;100865.06;;;44.45;13.26
60725;BME280;59881;36.722;-4.462;2023-04-25T10:38:38;100857.88;;;42.98;14.66
60725;BME280;59881;36.722;-4.462;2023-04-25T10:41:06;100844.06;;;41.14;15.96
60725;BME280;59881;36.722;-4.462;2023-04-25T10:43:47;100723.25;;;36.83;18.28
60725;BME280;59881;36.722;-4.462;2023-04-25T10:48:52;100863.47;;;31.41;24.17
60725;BME280;59881;36.722;-4.462;2023-04-25T10:51:23;100816.75;;;29.63;25.71
60725;BME280;59881;36.722;-4.462;2023-04-25T10:56:30;100861.44;;;28.40;27.70
60725;BME280;59881;36.722;-4.462;2023-04-25T10:59:06;100857.28;;;27.85;28.94
60725;BME280;59881;36.722;-4.462;2023-04-25T11:01:38;100862.91;;;27.57;28.74
60725;BME280;59881;36.722;-4.462;2023-04-25T11:04:04;100859.38;;;27.50;30.49
60725;BME280;59881;36.722;-4.462;2023-04-25T11:06:42;100868.13;;;27.45;31.46
60725;BME280;59881;36.722;-4.462;2023-04-25T11:09:12;100856.03;;;27.15;32.69
60725;BME280;59881;36.722;-4.462;2023-04-25T11:11:41;100860.78;;;26.79;33.51
60725;BME280;59881;36.722;-4.462;2023-04-25T11:14:06;100850.84;;;26.38;35.16
60725;BME280;59881;36.722;-4.462;2023-04-25T11:16:32;100852.25;;;26.28;36.55
60725;BME280;59881;36.722;-4.462;2023-04-25T11:18:58;100858.13;;;25.96;38.06
60725;BME280;59881;36.722;-4.462;2023-04-25T11:21:27;100828.38;;;25.55;38.25
60725;BME280;59881;36.722;-4.462;2023-04-25T11:23:54;100758.75;;;25.09;39.20
60725;BME280;59881;36.722;-4.462;2023-04-25T11:26:19;100687.72;;;24.45;39.94
60725;BME280;59881;36.722;-4.462;2023-04-25T11:28:46;100755.22;;;24.58;40.64
60725;BME280;59881;36.722;-4.462;2023-04-25T11:31:12;100861.94;;;25.03;41.37
60725;BME280;59881;36.722;-4.462;2023-04-25T11:33:38;100793.31;;;24.41;41.46
60725;BME280;59881;36.722;-4.462;2023-04-25T11:36:06;100849.50;;;24.80;42.20
60725;BME280;59881;36.722;-4.462;2023-04-25T11:38:31;100846.81;;;24.80;42.05
60725;BME280;59881;36.722;-4.462;2023-04-25T11:40:57;100824.91;;;24.68;40.83
60725;BME280;59881;36.722;-4.462;2023-04-25T11:43:22;100632.16;;;23.43;41.10
60725;BME280;59881;36.722;-4.462;2023-04-25T11:45:49;100841.31;;;24.52;40.42
60725;BME280;59881;36.722;-4.462;2023-04-25T11:48:16;100835.34;;;24.42;40.13
60725;BME280;59881;36.722;-4.462;2023-04-25T11:50:42;100834.91;;;24.38;40.68
60725;BME280;59881;36.722;-4.462;2023-04-25T11:53:08;100570.75;;;22.66;40.44
60725;BME280;59881;36.722;-4.462;2023-04-25T11:55:34;100531.53;;;22.27;40.91
60725;BME280;59881;36.722;-4.462;2023-04-25T11:58:00;100821.50;;;24.08;40.51
60725;BME280;59881;36.722;-4.462;2023-04-25T12:00:26;100686.66;;;23.22;40.05
60725;BME280;59881;36.722;-4.462;2023-04-25T12:02:54;100741.38;;;23.59;40.25
60725;BME280;59881;36.722;-4.462;2023-04-25T12:05:24;100786.25;;;24.03;39.69
60725;BME280;59881;36.722;-4.462;2023-04-25T12:07:50;100671.50;;;23.29;40.27
60725;BME280;59881;36.722;-4.462;2023-04-25T12:10:17;100788.38;;;23.93;39.80
60725;BME280;59881;36.722;-4.462;2023-04-25T12:12:45;100788.28;;;24.01;38.77
60725;BME280;59881;36.722;-4.462;2023-04-25T12:15:13;100793.41;;;23.96;35.89
60725;BME280;59881;36.722;-4.462;2023-04-25T12:17:51;100789.25;;;23.93;35.57
60725;BME280;59881;36.722;-4.462;2023-04-25T12:20:19;100767.72;;;23.93;34.66
60725;BME280;59881;36.722;-4.462;2023-04-25T12:22:48;100772.06;;;24.09;35.57
60725;BME280;59881;36.722;-4.462;2023-04-25T12:28:17;100767.78;;;24.36;33.82
60725;BME280;59881;36.722;-4.462;2023-04-25T12:33:26;100786.88;;;24.20;34.74
60725;BME280;59881;36.722;-4.462;2023-04-25T12:35:54;100771.22;;;24.09;35.13
60725;BME280;59881;36.722;-4.462;2023-04-25T12:38:28;100774.28;;;24.06;34.95
60725;BME280;59881;36.722;-4.462;2023-04-25T12:40:58;100763.59;;;23.98;38.21
60725;BME280;59881;36.722;-4.462;2023-04-25T12:43:24;100750.06;;;23.91;39.42
60725;BME280;59881;36.722;-4.462;2023-04-25T12:45:54;100778.84;;;23.90;39.92
60725;BME280;59881;36.722;-4.462;2023-04-25T12:48:21;100742.88;;;23.77;39.53
60725;BME280;59881;36.722;-4.462;2023-04-25T12:50:48;100766.78;;;23.86;39.82